sensor_id;sensor_type;location;lat;lon;timestamp;temperature;humidity
70368;DHT22;57789;53.868;10.728;2023-03-21T00:00:40;7.90;99.90
70368;DHT22;57789;53.868;10.728;2023-03-21T00:03:06;8.00;99.90
70368;DHT22;57789;53.868;10.728;2023-03-21T00:05:32;8.00;99.90
70368;DHT22;57789;53.868;10.728;2023-03-21T00:07:57;8.00;99.90
70368;DHT22;57789;53.868;10.728;2023-03-21T00:10:23;8.00;99.90
70368;DHT22;57789;53.868;10.728;2023-03-21T00:12:49;8.00;99.90
70368;DHT22;57789;53.868;10.728;2023-03-21T00:15:20;7.90;99.90
70368;DHT22;57789;53.868;10.728;2023-03-21T00:17:45;7.90;99.90
70368;DHT22;57789;53.868;10.728;2023-03-21T00:20:15;8.00;99.90
70368;DHT22;57789;53.868;10.728;2023-03-21T00:22:41;8.00;99.90
70368;DHT22;57789;53.868;10.728;2023-03-21T00:25:07;8.00;99.90
70368;DHT22;57789;53.868;10.728;2023-03-21T00:27:34;8.00;99.90
70368;DHT22;57789;53.868;10.728;2023-03-21T00:30:00;8.00;99.90
70368;DHT22;57789;53.868;10.728;2023-03-21T00:32:26;8.00;99.90
70368;DHT22;57789;53.868;10.728;2023-03-21T00:34:51;8.10;99.90
70368;DHT22;57789;53.868;10.728;2023-03-21T00:37:17;8.10;99.90
70368;DHT22;57789;53.868;10.728;2023-03-21T00:39:45;8.10;99.90
70368;DHT22;57789;53.868;10.728;2023-03-21T00:42:16;8.00;99.90
70368;DHT22;57789;53.868;10.728;2023-03-21T00:44:42;7.90;99.90
70368;DHT22;57789;53.868;10.728;2023-03-21T00:47:11;8.00;99.90
70368;DHT22;57789;53.868;10.728;2023-03-21T00:49:36;8.00;99.90
70368;DHT22;57789;53.868;10.728;2023-03-21T00:52:07;8.00;99.90
70368;DHT22;57789;53.868;10.728;2023-03-21T00:54:34;8.00;99.90
70368;DHT22;57789;53.868;10.728;2023-03-21T00:57:00;8.10;99.90
70368;DHT22;57789;53.868;10.728;2023-03-21T00:59:27;8.00;99.90
70368;DHT22;57789;53.868;10.728;2023-03-21T01:01:53;8.10;99.90
70368;DHT22;57789;53.868;10.728;2023-03-21T01:04:19;8.10;99.90
70368;DHT22;57789;53.868;10.728;2023-03-21T01:06:46;8.10;99.90
70368;DHT22;57789;53.868;10.728;2023-03-21T01:09:18;8.10;99.90
70368;DHT22;57789;53.868;10.728;2023-03-21T01:11:44;8.20;99.90
70368;DHT22;57789;53.868;10.728;2023-03-21T01:14:11;8.10;99.90
70368;DHT22;57789;53.868;10.728;2023-03-21T01:16:37;8.00;99.90
70368;DHT22;57789;53.868;10.728;2023-03-21T01:19:06;8.00;99.90
70368;DHT22;57789;53.868;10.728;2023-03-21T01:21:33;8.00;99.90
70368;DHT22;57789;53.868;10.728;2023-03-21T01:23:59;8.00;99.90
70368;DHT22;57789;53.868;10.728;2023-03-21T01:26:26;8.00;99.90
70368;DHT22;57789;53.868;10.728;2023-03-21T01:28:52;8.00;99.90
70368;DHT22;57789;53.868;10.728;2023-03-21T01:31:18;8.00;99.90
70368;DHT22;57789;53.868;10.728;2023-03-21T01:33:44;8.00;99.90
70368;DHT22;57789;53.868;10.728;2023-03-21T01:36:16;8.00;99.90
70368;DHT22;57789;53.868;10.728;2023-03-21T01:38:42;8.00;99.90
70368;DHT22;57789;53.868;10.728;2023-03-21T01:41:29;8.00;99.90
70368;DHT22;57789;53.868;10.728;2023-03-21T01:43:55;8.00;99.90
70368;DHT22;57789;53.868;10.728;2023-03-21T01:51:59;8.10;99.90
70368;DHT22;57789;53.868;10.728;2023-03-21T01:54:29;8.10;99.90
70368;DHT22;57789;53.868;10.728;2023-03-21T01:56:59;8.10;99.90
70368;DHT22;57789;53.868;10.728;2023-03-21T01:59:39;8.00;99.90
70368;DHT22;57789;53.868;10.728;2023-03-21T02:02:10;8.10;99.90
70368;DHT22;57789;53.868;10.728;2023-03-21T02:04:37;8.10;99.90
70368;DHT22;57789;53.868;10.728;2023-03-21T02:07:14;8.10;99.90
70368;DHT22;57789;53.868;10.728;2023-03-21T02:09:48;8.10;99.90
70368;DHT22;57789;53.868;10.728;2023-03-21T02:12:15;8.10;99.90
70368;DHT22;57789;53.868;10.728;2023-03-21T02:14:43;8.10;99.90
70368;DHT22;57789;53.868;10.728;2023-03-21T02:23:29;8.10;99.90
70368;DHT22;57789;53.868;10.728;2023-03-21T02:47:21;7.90;99.90
70368;DHT22;57789;53.868;10.728;2023-03-21T02:50:37;8.00;99.90
70368;DHT22;57789;53.868;10.728;2023-03-21T02:52:38;7.90;99.90
70368;DHT22;57789;53.868;10.728;2023-03-21T02:55:16;7.80;99.90
70368;DHT22;57789;53.868;10.728;2023-03-21T02:57:44;7.90;99.90
70368;DHT22;57789;53.868;10.728;2023-03-21T03:00:16;7.90;99.90
70368;DHT22;57789;53.868;10.728;2023-03-21T03:02:43;7.90;99.90
70368;DHT22;57789;53.868;10.728;2023-03-21T03:05:15;7.90;99.90
70368;DHT22;57789;53.868;10.728;2023-03-21T03:16:38;7.80;99.90
70368;DHT22;57789;53.868;10.728;2023-03-21T03:19:09;7.80;99.90
70368;DHT22;57789;53.868;10.728;2023-03-21T03:21:48;7.90;99.90
70368;DHT22;57789;53.868;10.728;2023-03-21T03:24:21;7.90;99.90
70368;DHT22;57789;53.868;10.728;2023-03-21T03:26:56;7.80;99.90
70368;DHT22;57789;53.868;10.728;2023-03-21T03:29:25;7.80;99.90
70368;DHT22;57789;53.868;10.728;2023-03-21T03:32:00;7.80;99.90
70368;DHT22;57789;53.868;10.728;2023-03-21T03:34:31;7.80;99.90
70368;DHT22;57789;53.868;10.728;2023-03-21T03:37:01;7.80;99.90
70368;DHT22;57789;53.868;10.728;2023-03-21T03:39:53;7.80;99.90
70368;DHT22;57789;53.868;10.728;2023-03-21T03:42:24;7.80;99.90
70368;DHT22;57789;53.868;10.728;2023-03-21T03:44:52;7.80;99.90
70368;DHT22;57789;53.868;10.728;2023-03-21T03:47:44;7.80;99.90
70368;DHT22;57789;53.868;10.728;2023-03-21T03:50:34;7.80;99.90
70368;DHT22;57789;53.868;10.728;2023-03-21T03:53:21;7.80;99.90
70368;DHT22;57789;53.868;10.728;2023-03-21T03:55:48;7.80;99.90
70368;DHT22;57789;53.868;10.728;2023-03-21T03:58:17;7.70;99.90
70368;DHT22;57789;53.868;10.728;2023-03-21T04:00:44;7.70;99.90
70368;DHT22;57789;53.868;10.728;2023-03-21T04:03:09;7.80;99.90
70368;DHT22;57789;53.868;10.728;2023-03-21T04:05:35;7.80;99.90
70368;DHT22;57789;53.868;10.728;2023-03-21T04:08:01;7.70;99.90
70368;DHT22;57789;53.868;10.728;2023-03-21T04:10:27;7.70;99.90
70368;DHT22;57789;53.868;10.728;2023-03-21T04:12:53;7.70;99.90
70368;DHT22;57789;53.868;10.728;2023-03-21T04:15:19;7.80;99.90
70368;DHT22;57789;53.868;10.728;2023-03-21T04:17:45;7.90;99.90
70368;DHT22;57789;53.868;10.728;2023-03-21T04:20:11;7.90;99.90
70368;DHT22;57789;53.868;10.728;2023-03-21T04:22:36;7.80;99.90
70368;DHT22;57789;53.868;10.728;2023-03-21T04:25:02;7.80;99.90
70368;DHT22;57789;53.868;10.728;2023-03-21T04:27:30;7.80;99.90
70368;DHT22;57789;53.868;10.728;2023-03-21T04:29:57;7.80;99.90
70368;DHT22;57789;53.868;10.728;2023-03-21T04:32:23;7.90;99.90
70368;DHT22;57789;53.868;10.728;2023-03-21T04:34:49;7.80;99.90
70368;DHT22;57789;53.868;10.728;2023-03-21T04:37:20;7.80;99.90
70368;DHT22;57789;53.868;10.728;2023-03-21T04:39:48;7.90;99.90
70368;DHT22;57789;53.868;10.728;2023-03-21T04:42:15;7.90;99.90
70368;DHT22;57789;53.868;10.728;2023-03-21T04:44:45;7.90;99.90
70368;DHT22;57789;53.868;10.728;2023-03-21T04:47:11;7.90;99.90
70368;DHT22;57789;53.868;10.728;2023-03-21T04:49:38;7.90;99.90
70368;DHT22;57789;53.868;10.728;2023-03-21T04:52:04;7.90;99.90
70368;DHT22;57789;53.868;10.728;2023-03-21T04:54:30;7.90;99.90
70368;DHT22;57789;53.868;10.728;2023-03-21T04:56:57;8.00;99.90
70368;DHT22;57789;53.868;10.728;2023-03-21T04:59:23;7.90;99.90
70368;DHT22;57789;53.868;10.728;2023-03-21T05:01:49;7.90;99.90
70368;DHT22;57789;53.868;10.728;2023-03-21T05:04:15;7.90;99.90
70368;DHT22;57789;53.868;10.728;2023-03-21T05:06:41;7.90;99.90
70368;DHT22;57789;53.868;10.728;2023-03-21T05:09:07;7.90;99.90
70368;DHT22;57789;53.868;10.728;2023-03-21T05:11:35;7.90;99.90
70368;DHT22;57789;53.868;10.728;2023-03-21T05:14:06;7.90;99.90
70368;DHT22;57789;53.868;10.728;2023-03-21T05:16:33;7.90;99.90
70368;DHT22;57789;53.868;10.728;2023-03-21T05:18:59;7.90;99.90
70368;DHT22;57789;53.868;10.728;2023-03-21T05:21:30;7.80;99.90
70368;DHT22;57789;53.868;10.728;2023-03-21T05:23:59;7.90;99.90
70368;DHT22;57789;53.868;10.728;2023-03-21T05:26:28;7.90;99.90
70368;DHT22;57789;53.868;10.728;2023-03-21T05:28:54;7.90;99.90
70368;DHT22;57789;53.868;10.728;2023-03-21T05:31:20;7.90;99.90
70368;DHT22;57789;53.868;10.728;2023-03-21T05:33:46;8.00;99.90
70368;DHT22;57789;53.868;10.728;2023-03-21T05:36:13;8.00;99.90
70368;DHT22;57789;53.868;10.728;2023-03-21T05:38:39;8.00;99.90
70368;DHT22;57789;53.868;10.728;2023-03-21T05:41:13;8.00;99.90
70368;DHT22;57789;53.868;10.728;2023-03-21T05:43:39;8.00;99.90
70368;DHT22;57789;53.868;10.728;2023-03-21T05:46:05;8.00;99.90
70368;DHT22;57789;53.868;10.728;2023-03-21T05:48:31;8.00;99.90
70368;DHT22;57789;53.868;10.728;2023-03-21T05:50:57;7.90;99.90
70368;DHT22;57789;53.868;10.728;2023-03-21T05:53:22;8.00;99.90
70368;DHT22;57789;53.868;10.728;2023-03-21T05:55:48;8.00;99.90
70368;DHT22;57789;53.868;10.728;2023-03-21T05:58:14;8.00;99.90
70368;DHT22;57789;53.868;10.728;2023-03-21T06:00:40;8.00;99.90
70368;DHT22;57789;53.868;10.728;2023-03-21T06:03:06;8.00;99.90
70368;DHT22;57789;53.868;10.728;2023-03-21T06:05:31;8.10;99.90
70368;DHT22;57789;53.868;10.728;2023-03-21T06:07:57;8.10;99.90
70368;DHT22;57789;53.868;10.728;2023-03-21T06:10:23;8.20;99.90
70368;DHT22;57789;53.868;10.728;2023-03-21T06:12:48;8.10;99.90
70368;DHT22;57789;53.868;10.728;2023-03-21T06:15:14;8.10;99.90
70368;DHT22;57789;53.868;10.728;2023-03-21T06:17:39;8.10;99.90
70368;DHT22;57789;53.868;10.728;2023-03-21T06:20:06;8.10;99.90
70368;DHT22;57789;53.868;10.728;2023-03-21T06:22:33;8.10;99.90
70368;DHT22;57789;53.868;10.728;2023-03-21T06:24:59;8.20;99.90
70368;DHT22;57789;53.868;10.728;2023-03-21T06:27:26;8.20;99.90
70368;DHT22;57789;53.868;10.728;2023-03-21T06:29:51;8.30;99.90
70368;DHT22;57789;53.868;10.728;2023-03-21T06:32:17;8.30;99.90
70368;DHT22;57789;53.868;10.728;2023-03-21T06:34:43;8.30;99.90
70368;DHT22;57789;53.868;10.728;2023-03-21T06:37:09;8.30;99.90
70368;DHT22;57789;53.868;10.728;2023-03-21T06:39:35;8.40;99.90
70368;DHT22;57789;53.868;10.728;2023-03-21T06:42:01;8.30;99.90
70368;DHT22;57789;53.868;10.728;2023-03-21T06:44:27;8.40;99.90
70368;DHT22;57789;53.868;10.728;2023-03-21T06:46:53;8.50;99.90
70368;DHT22;57789;53.868;10.728;2023-03-21T06:49:19;8.50;99.90
70368;DHT22;57789;53.868;10.728;2023-03-21T06:51:45;8.50;99.90
70368;DHT22;57789;53.868;10.728;2023-03-21T06:54:11;8.50;99.90
70368;DHT22;57789;53.868;10.728;2023-03-21T06:56:37;8.50;99.90
70368;DHT22;57789;53.868;10.728;2023-03-21T06:59:03;8.70;99.90
70368;DHT22;57789;53.868;10.728;2023-03-21T07:01:29;8.70;99.90
70368;DHT22;57789;53.868;10.728;2023-03-21T07:03:55;8.80;99.90
70368;DHT22;57789;53.868;10.728;2023-03-21T07:06:23;8.70;99.90
70368;DHT22;57789;53.868;10.728;2023-03-21T07:08:51;8.80;99.90
70368;DHT22;57789;53.868;10.728;2023-03-21T07:11:18;8.80;99.90
70368;DHT22;57789;53.868;10.728;2023-03-21T07:13:44;8.90;99.90
70368;DHT22;57789;53.868;10.728;2023-03-21T07:16:10;9.00;99.90
70368;DHT22;57789;53.868;10.728;2023-03-21T07:18:36;9.00;99.90
70368;DHT22;57789;53.868;10.728;2023-03-21T07:21:02;9.00;99.90
70368;DHT22;57789;53.868;10.728;2023-03-21T07:23:28;9.10;99.90
70368;DHT22;57789;53.868;10.728;2023-03-21T07:25:54;9.10;99.90
70368;DHT22;57789;53.868;10.728;2023-03-21T07:28:20;9.10;99.90
70368;DHT22;57789;53.868;10.728;2023-03-21T07:30:53;9.10;99.90
70368;DHT22;57789;53.868;10.728;2023-03-21T07:33:19;9.00;99.90
70368;DHT22;57789;53.868;10.728;2023-03-21T07:35:45;9.10;99.90
70368;DHT22;57789;53.868;10.728;2023-03-21T07:38:10;9.00;99.90
70368;DHT22;57789;53.868;10.728;2023-03-21T07:40:36;9.00;99.90
70368;DHT22;57789;53.868;10.728;2023-03-21T07:43:02;9.20;99.90
70368;DHT22;57789;53.868;10.728;2023-03-21T07:45:27;9.30;99.90
70368;DHT22;57789;53.868;10.728;2023-03-21T07:47:53;9.40;99.90
70368;DHT22;57789;53.868;10.728;2023-03-21T07:50:19;9.50;99.90
70368;DHT22;57789;53.868;10.728;2023-03-21T07:52:45;9.50;99.90
70368;DHT22;57789;53.868;10.728;2023-03-21T07:55:11;9.40;99.90
70368;DHT22;57789;53.868;10.728;2023-03-21T07:57:37;9.30;99.90
70368;DHT22;57789;53.868;10.728;2023-03-21T08:00:04;9.30;99.90
70368;DHT22;57789;53.868;10.728;2023-03-21T08:02:31;9.40;99.90
70368;DHT22;57789;53.868;10.728;2023-03-21T08:04:57;9.50;99.90
70368;DHT22;57789;53.868;10.728;2023-03-21T08:07:23;9.50;99.90
70368;DHT22;57789;53.868;10.728;2023-03-21T08:09:48;9.60;99.90
70368;DHT22;57789;53.868;10.728;2023-03-21T08:12:14;9.80;99.90
70368;DHT22;57789;53.868;10.728;2023-03-21T08:14:41;9.80;99.90
70368;DHT22;57789;53.868;10.728;2023-03-21T08:17:06;9.80;99.90
70368;DHT22;57789;53.868;10.728;2023-03-21T08:19:34;9.80;99.90
70368;DHT22;57789;53.868;10.728;2023-03-21T08:22:00;9.90;99.90
70368;DHT22;57789;53.868;10.728;2023-03-21T08:24:27;9.90;99.90
70368;DHT22;57789;53.868;10.728;2023-03-21T08:26:53;9.80;99.90
70368;DHT22;57789;53.868;10.728;2023-03-21T08:29:19;9.80;99.90
70368;DHT22;57789;53.868;10.728;2023-03-21T08:31:46;9.90;99.90
70368;DHT22;57789;53.868;10.728;2023-03-21T08:34:11;9.90;99.90
70368;DHT22;57789;53.868;10.728;2023-03-21T08:36:38;9.90;99.90
70368;DHT22;57789;53.868;10.728;2023-03-21T08:39:04;9.90;99.90
70368;DHT22;57789;53.868;10.728;2023-03-21T08:41:31;9.90;99.90
70368;DHT22;57789;53.868;10.728;2023-03-21T08:43:57;9.90;99.90
70368;DHT22;57789;53.868;10.728;2023-03-21T08:46:23;9.90;99.90
70368;DHT22;57789;53.868;10.728;2023-03-21T08:48:48;9.90;99.90
70368;DHT22;57789;53.868;10.728;2023-03-21T08:51:14;9.90;99.90
70368;DHT22;57789;53.868;10.728;2023-03-21T08:53:40;9.80;99.90
70368;DHT22;57789;53.868;10.728;2023-03-21T08:56:09;9.80;99.90
70368;DHT22;57789;53.868;10.728;2023-03-21T08:58:35;9.90;99.90
70368;DHT22;57789;53.868;10.728;2023-03-21T09:01:02;9.80;99.90
70368;DHT22;57789;53.868;10.728;2023-03-21T09:03:28;9.70;99.90
70368;DHT22;57789;53.868;10.728;2023-03-21T09:05:55;9.80;99.90
70368;DHT22;57789;53.868;10.728;2023-03-21T09:08:21;9.80;99.90
70368;DHT22;57789;53.868;10.728;2023-03-21T09:10:52;10.00;99.90
70368;DHT22;57789;53.868;10.728;2023-03-21T09:13:19;9.80;99.90
70368;DHT22;57789;53.868;10.728;2023-03-21T09:15:45;9.80;99.90
70368;DHT22;57789;53.868;10.728;2023-03-21T09:18:11;9.80;99.90
70368;DHT22;57789;53.868;10.728;2023-03-21T09:20:44;9.90;99.90
70368;DHT22;57789;53.868;10.728;2023-03-21T09:23:12;9.80;99.90
70368;DHT22;57789;53.868;10.728;2023-03-21T09:25:39;9.80;99.90
70368;DHT22;57789;53.868;10.728;2023-03-21T09:28:04;9.70;99.90
70368;DHT22;57789;53.868;10.728;2023-03-21T09:30:32;9.80;99.90
70368;DHT22;57789;53.868;10.728;2023-03-21T09:33:02;9.80;99.90
70368;DHT22;57789;53.868;10.728;2023-03-21T09:35:31;9.80;99.90
70368;DHT22;57789;53.868;10.728;2023-03-21T09:37:57;9.90;99.90
70368;DHT22;57789;53.868;10.728;2023-03-21T09:48:53;10.00;99.90
70368;DHT22;57789;53.868;10.728;2023-03-21T09:51:23;10.00;99.90
70368;DHT22;57789;53.868;10.728;2023-03-21T09:53:52;10.00;99.90
70368;DHT22;57789;53.868;10.728;2023-03-21T09:56:20;10.10;99.90
70368;DHT22;57789;53.868;10.728;2023-03-21T09:58:49;10.20;99.90
70368;DHT22;57789;53.868;10.728;2023-03-21T10:01:24;10.30;99.90
70368;DHT22;57789;53.868;10.728;2023-03-21T10:04:05;10.40;99.90
70368;DHT22;57789;53.868;10.728;2023-03-21T10:06:34;10.30;99.90
70368;DHT22;57789;53.868;10.728;2023-03-21T10:09:07;10.30;99.90
70368;DHT22;57789;53.868;10.728;2023-03-21T10:14:40;10.30;99.90
70368;DHT22;57789;53.868;10.728;2023-03-21T10:17:32;10.20;99.90
70368;DHT22;57789;53.868;10.728;2023-03-21T10:22:48;10.30;99.90
70368;DHT22;57789;53.868;10.728;2023-03-21T10:25:18;10.30;99.90
70368;DHT22;57789;53.868;10.728;2023-03-21T10:27:45;10.30;99.90
70368;DHT22;57789;53.868;10.728;2023-03-21T10:30:40;10.40;99.90
70368;DHT22;57789;53.868;10.728;2023-03-21T10:33:07;10.40;99.90
70368;DHT22;57789;53.868;10.728;2023-03-21T10:35:36;10.40;99.90
70368;DHT22;57789;53.868;10.728;2023-03-21T10:38:04;10.40;99.90
70368;DHT22;57789;53.868;10.728;2023-03-21T10:40:30;10.20;99.90
70368;DHT22;57789;53.868;10.728;2023-03-21T10:43:15;10.20;99.90
70368;DHT22;57789;53.868;10.728;2023-03-21T10:45:44;10.30;99.90
70368;DHT22;57789;53.868;10.728;2023-03-21T10:48:10;10.30;99.90
70368;DHT22;57789;53.868;10.728;2023-03-21T10:50:36;10.40;99.90
70368;DHT22;57789;53.868;10.728;2023-03-21T10:53:02;10.50;99.90
70368;DHT22;57789;53.868;10.728;2023-03-21T10:55:34;10.60;99.90
70368;DHT22;57789;53.868;10.728;2023-03-21T10:58:06;10.70;99.90
70368;DHT22;57789;53.868;10.728;2023-03-21T11:00:42;10.60;99.90
70368;DHT22;57789;53.868;10.728;2023-03-21T11:03:35;10.70;99.90
70368;DHT22;57789;53.868;10.728;2023-03-21T11:06:25;10.80;99.90
70368;DHT22;57789;53.868;10.728;2023-03-21T11:09:03;10.80;99.90
70368;DHT22;57789;53.868;10.728;2023-03-21T11:11:38;10.80;99.90
70368;DHT22;57789;53.868;10.728;2023-03-21T11:14:07;10.90;99.90
70368;DHT22;57789;53.868;10.728;2023-03-21T11:16:42;11.00;99.90
70368;DHT22;57789;53.868;10.728;2023-03-21T11:19:14;11.10;99.90
70368;DHT22;57789;53.868;10.728;2023-03-21T11:21:40;11.00;99.90
70368;DHT22;57789;53.868;10.728;2023-03-21T11:24:11;11.10;99.90
70368;DHT22;57789;53.868;10.728;2023-03-21T11:26:38;11.00;99.90
70368;DHT22;57789;53.868;10.728;2023-03-21T11:29:39;11.10;99.90
70368;DHT22;57789;53.868;10.728;2023-03-21T11:32:12;11.10;99.90
70368;DHT22;57789;53.868;10.728;2023-03-21T11:34:46;11.20;99.90
70368;DHT22;57789;53.868;10.728;2023-03-21T11:37:25;11.00;99.90
70368;DHT22;57789;53.868;10.728;2023-03-21T11:40:04;10.90;99.90
70368;DHT22;57789;53.868;10.728;2023-03-21T11:42:32;10.80;99.90
70368;DHT22;57789;53.868;10.728;2023-03-21T11:45:14;10.80;99.90
70368;DHT22;57789;53.868;10.728;2023-03-21T11:47:41;10.80;99.90
70368;DHT22;57789;53.868;10.728;2023-03-21T11:53:18;11.00;99.90
70368;DHT22;57789;53.868;10.728;2023-03-21T11:55:54;11.00;99.90
70368;DHT22;57789;53.868;10.728;2023-03-21T12:06:57;10.90;99.90
70368;DHT22;57789;53.868;10.728;2023-03-21T12:09:39;11.00;99.90
70368;DHT22;57789;53.868;10.728;2023-03-21T12:15:30;10.90;99.90
70368;DHT22;57789;53.868;10.728;2023-03-21T12:21:00;10.80;99.90
70368;DHT22;57789;53.868;10.728;2023-03-21T12:37:51;11.00;99.90
70368;DHT22;57789;53.868;10.728;2023-03-21T12:40:25;11.00;99.90
70368;DHT22;57789;53.868;10.728;2023-03-21T12:45:41;11.10;99.90
70368;DHT22;57789;53.868;10.728;2023-03-21T12:48:29;11.10;99.90
70368;DHT22;57789;53.868;10.728;2023-03-21T12:50:59;11.10;99.90
70368;DHT22;57789;53.868;10.728;2023-03-21T12:53:52;11.20;99.90
70368;DHT22;57789;53.868;10.728;2023-03-21T12:56:46;11.30;99.90
70368;DHT22;57789;53.868;10.728;2023-03-21T12:59:19;11.20;99.90
70368;DHT22;57789;53.868;10.728;2023-03-21T13:01:49;11.20;99.90
70368;DHT22;57789;53.868;10.728;2023-03-21T13:04:42;11.20;99.90
70368;DHT22;57789;53.868;10.728;2023-03-21T13:07:13;11.20;99.90
70368;DHT22;57789;53.868;10.728;2023-03-21T13:09:42;11.20;99.90
70368;DHT22;57789;53.868;10.728;2023-03-21T13:17:41;11.00;99.90
70368;DHT22;57789;53.868;10.728;2023-03-21T13:22:40;11.00;99.90
70368;DHT22;57789;53.868;10.728;2023-03-21T13:25:19;11.00;99.90
70368;DHT22;57789;53.868;10.728;2023-03-21T13:27:54;10.90;99.90
70368;DHT22;57789;53.868;10.728;2023-03-21T13:30:24;10.90;99.90
70368;DHT22;57789;53.868;10.728;2023-03-21T13:35:40;10.90;99.90
70368;DHT22;57789;53.868;10.728;2023-03-21T13:38:16;10.90;99.90
70368;DHT22;57789;53.868;10.728;2023-03-21T13:41:12;10.90;99.90
70368;DHT22;57789;53.868;10.728;2023-03-21T13:47:49;10.90;99.90
70368;DHT22;57789;53.868;10.728;2023-03-21T13:55:28;11.30;99.90
70368;DHT22;57789;53.868;10.728;2023-03-21T13:57:55;11.30;99.90
70368;DHT22;57789;53.868;10.728;2023-03-21T14:00:30;11.30;99.90
70368;DHT22;57789;53.868;10.728;2023-03-21T14:03:07;11.20;99.90
70368;DHT22;57789;53.868;10.728;2023-03-21T14:05:34;11.00;99.90
70368;DHT22;57789;53.868;10.728;2023-03-21T14:08:05;10.90;99.90
70368;DHT22;57789;53.868;10.728;2023-03-21T14:10:38;10.90;99.90
70368;DHT22;57789;53.868;10.728;2023-03-21T14:13:08;10.80;99.90
70368;DHT22;57789;53.868;10.728;2023-03-21T14:15:43;10.70;99.90
70368;DHT22;57789;53.868;10.728;2023-03-21T14:18:18;10.70;99.90
70368;DHT22;57789;53.868;10.728;2023-03-21T14:20:44;10.60;99.90
70368;DHT22;57789;53.868;10.728;2023-03-21T14:23:15;10.60;99.90
70368;DHT22;57789;53.868;10.728;2023-03-21T14:25:42;10.50;99.90
70368;DHT22;57789;53.868;10.728;2023-03-21T14:28:17;10.60;99.90
70368;DHT22;57789;53.868;10.728;2023-03-21T14:30:44;10.60;99.90
70368;DHT22;57789;53.868;10.728;2023-03-21T14:33:24;10.60;99.90
70368;DHT22;57789;53.868;10.728;2023-03-21T14:35:50;10.60;99.90
70368;DHT22;57789;53.868;10.728;2023-03-21T14:38:23;10.60;99.90
70368;DHT22;57789;53.868;10.728;2023-03-21T14:40:54;10.60;99.90
70368;DHT22;57789;53.868;10.728;2023-03-21T14:43:21;10.60;99.90
70368;DHT22;57789;53.868;10.728;2023-03-21T14:45:50;10.70;99.90
70368;DHT22;57789;53.868;10.728;2023-03-21T14:48:18;10.70;99.90
70368;DHT22;57789;53.868;10.728;2023-03-21T14:50:54;10.70;99.90
70368;DHT22;57789;53.868;10.728;2023-03-21T14:53:28;10.70;99.90
70368;DHT22;57789;53.868;10.728;2023-03-21T14:56:06;10.70;99.90
70368;DHT22;57789;53.868;10.728;2023-03-21T14:58:37;10.80;99.90
70368;DHT22;57789;53.868;10.728;2023-03-21T15:01:05;10.70;99.90
70368;DHT22;57789;53.868;10.728;2023-03-21T15:03:33;10.70;99.90
70368;DHT22;57789;53.868;10.728;2023-03-21T15:05:59;10.70;99.90
70368;DHT22;57789;53.868;10.728;2023-03-21T15:08:27;10.60;99.90
70368;DHT22;57789;53.868;10.728;2023-03-21T15:10:56;10.60;99.90
70368;DHT22;57789;53.868;10.728;2023-03-21T15:13:25;10.60;99.90
70368;DHT22;57789;53.868;10.728;2023-03-21T15:15:51;10.60;99.90
70368;DHT22;57789;53.868;10.728;2023-03-21T15:18:26;10.60;99.90
70368;DHT22;57789;53.868;10.728;2023-03-21T15:20:54;10.60;99.90
70368;DHT22;57789;53.868;10.728;2023-03-21T15:23:40;10.60;99.90
70368;DHT22;57789;53.868;10.728;2023-03-21T15:26:06;10.50;99.90
70368;DHT22;57789;53.868;10.728;2023-03-21T15:28:33;10.50;99.90
70368;DHT22;57789;53.868;10.728;2023-03-21T15:30:59;10.50;99.90
70368;DHT22;57789;53.868;10.728;2023-03-21T15:33:26;10.50;99.90
70368;DHT22;57789;53.868;10.728;2023-03-21T15:35:54;10.50;99.90
70368;DHT22;57789;53.868;10.728;2023-03-21T15:41:15;10.40;99.90
70368;DHT22;57789;53.868;10.728;2023-03-21T15:43:42;10.40;99.90
70368;DHT22;57789;53.868;10.728;2023-03-21T15:46:15;10.50;99.90
70368;DHT22;57789;53.868;10.728;2023-03-21T15:48:41;10.40;99.90
70368;DHT22;57789;53.868;10.728;2023-03-21T15:51:20;10.40;99.90
70368;DHT22;57789;53.868;10.728;2023-03-21T15:53:50;10.50;99.90
70368;DHT22;57789;53.868;10.728;2023-03-21T15:56:16;10.40;99.90
70368;DHT22;57789;53.868;10.728;2023-03-21T15:58:47;10.40;99.90
70368;DHT22;57789;53.868;10.728;2023-03-21T16:01:20;10.40;99.90
70368;DHT22;57789;53.868;10.728;2023-03-21T16:04:08;10.40;99.90
70368;DHT22;57789;53.868;10.728;2023-03-21T16:06:36;10.30;99.90
70368;DHT22;57789;53.868;10.728;2023-03-21T16:14:01;10.30;99.90
70368;DHT22;57789;53.868;10.728;2023-03-21T16:16:28;10.30;99.90
70368;DHT22;57789;53.868;10.728;2023-03-21T16:18:55;10.30;99.90
70368;DHT22;57789;53.868;10.728;2023-03-21T16:21:26;10.30;99.90
70368;DHT22;57789;53.868;10.728;2023-03-21T16:23:53;10.30;99.90
70368;DHT22;57789;53.868;10.728;2023-03-21T16:26:22;10.30;99.90
70368;DHT22;57789;53.868;10.728;2023-03-21T16:28:48;10.30;99.90
70368;DHT22;57789;53.868;10.728;2023-03-21T16:31:16;10.30;99.90
70368;DHT22;57789;53.868;10.728;2023-03-21T16:33:42;10.30;99.90
70368;DHT22;57789;53.868;10.728;2023-03-21T16:36:14;10.30;99.90
70368;DHT22;57789;53.868;10.728;2023-03-21T16:38:42;10.30;99.90
70368;DHT22;57789;53.868;10.728;2023-03-21T16:41:14;10.30;99.90
70368;DHT22;57789;53.868;10.728;2023-03-21T16:43:41;10.30;99.90
70368;DHT22;57789;53.868;10.728;2023-03-21T16:46:17;10.20;99.90
70368;DHT22;57789;53.868;10.728;2023-03-21T16:48:46;10.20;99.90
70368;DHT22;57789;53.868;10.728;2023-03-21T16:51:23;10.20;99.90
70368;DHT22;57789;53.868;10.728;2023-03-21T16:53:51;10.20;99.90
70368;DHT22;57789;53.868;10.728;2023-03-21T16:56:26;10.20;99.90
70368;DHT22;57789;53.868;10.728;2023-03-21T16:58:54;10.20;99.90
70368;DHT22;57789;53.868;10.728;2023-03-21T17:01:21;10.20;99.90
70368;DHT22;57789;53.868;10.728;2023-03-21T17:03:50;10.20;99.90
70368;DHT22;57789;53.868;10.728;2023-03-21T17:06:19;10.10;99.90
70368;DHT22;57789;53.868;10.728;2023-03-21T17:08:45;10.10;99.90
70368;DHT22;57789;53.868;10.728;2023-03-21T17:11:12;10.10;99.90
70368;DHT22;57789;53.868;10.728;2023-03-21T17:13:43;10.10;99.90
70368;DHT22;57789;53.868;10.728;2023-03-21T17:16:13;10.10;99.90
70368;DHT22;57789;53.868;10.728;2023-03-21T17:18:40;10.10;99.90
70368;DHT22;57789;53.868;10.728;2023-03-21T17:21:17;10.00;99.90
70368;DHT22;57789;53.868;10.728;2023-03-21T17:23:43;10.00;99.90
70368;DHT22;57789;53.868;10.728;2023-03-21T17:26:12;10.00;99.90
70368;DHT22;57789;53.868;10.728;2023-03-21T17:28:39;10.00;99.90
70368;DHT22;57789;53.868;10.728;2023-03-21T17:31:15;10.00;99.90
70368;DHT22;57789;53.868;10.728;2023-03-21T17:33:42;10.00;99.90
70368;DHT22;57789;53.868;10.728;2023-03-21T17:36:19;9.90;99.90
70368;DHT22;57789;53.868;10.728;2023-03-21T17:38:45;9.90;99.90